sensor_id;sensor_type;location;lat;lon;timestamp;pressure;altitude;pressure_sealevel;temperature;humidity
34925;BME280;21130;51.728;8.748;2022-08-11T00:01:46;101106.13;;;15.07;73.54
34925;BME280;21130;51.728;8.748;2022-08-11T00:04:14;101096.63;;;15.08;72.78
34925;BME280;21130;51.728;8.748;2022-08-11T00:06:41;101102.00;;;15.15;70.29
34925;BME280;21130;51.728;8.748;2022-08-11T00:09:11;101090.63;;;15.21;69.41
34925;BME280;21130;51.728;8.748;2022-08-11T00:11:43;101096.63;;;15.57;65.51
34925;BME280;21130;51.728;8.748;2022-08-11T00:14:18;101096.94;;;15.83;62.87
34925;BME280;21130;51.728;8.748;2022-08-11T00:17:00;101099.91;;;16.03;60.50
34925;BME280;21130;51.728;8.748;2022-08-11T00:19:28;101093.03;;;16.21;60.14
34925;BME280;21130;51.728;8.748;2022-08-11T00:21:54;101098.25;;;16.45;59.61
34925;BME280;21130;51.728;8.748;2022-08-11T00:24:21;101092.69;;;16.55;57.86
34925;BME280;21130;51.728;8.748;2022-08-11T00:26:52;101084.94;;;16.67;56.30
34925;BME280;21130;51.728;8.748;2022-08-11T00:29:19;101095.91;;;16.74;55.76
34925;BME280;21130;51.728;8.748;2022-08-11T00:31:53;101094.53;;;16.76;56.74
34925;BME280;21130;51.728;8.748;2022-08-11T00:34:27;101101.25;;;16.75;58.38
34925;BME280;21130;51.728;8.748;2022-08-11T00:37:01;101095.88;;;16.69;58.30
34925;BME280;21130;51.728;8.748;2022-08-11T00:39:30;101089.09;;;16.59;58.54
34925;BME280;21130;51.728;8.748;2022-08-11T00:42:17;101093.56;;;16.55;57.71
34925;BME280;21130;51.728;8.748;2022-08-11T00:53:12;101083.66;;;16.42;56.64
34925;BME280;21130;51.728;8.748;2022-08-11T00:56:04;101086.78;;;16.46;56.41
34925;BME280;21130;51.728;8.748;2022-08-11T01:05:03;101091.84;;;16.12;59.81
34925;BME280;21130;51.728;8.748;2022-08-11T01:08:06;101099.22;;;15.91;60.98
34925;BME280;21130;51.728;8.748;2022-08-11T01:14:07;101095.59;;;15.63;65.08
34925;BME280;21130;51.728;8.748;2022-08-11T01:22:18;101101.47;;;15.40;67.46
34925;BME280;21130;51.728;8.748;2022-08-11T01:30:51;101095.00;;;15.12;69.20
34925;BME280;21130;51.728;8.748;2022-08-11T01:36:15;101095.41;;;14.99;67.96
34925;BME280;21130;51.728;8.748;2022-08-11T01:39:11;101090.53;;;15.11;65.70
34925;BME280;21130;51.728;8.748;2022-08-11T01:41:58;101088.31;;;15.13;65.89
34925;BME280;21130;51.728;8.748;2022-08-11T01:45:05;101085.19;;;15.09;67.75
34925;BME280;21130;51.728;8.748;2022-08-11T01:51:21;101089.88;;;15.04;67.82
34925;BME280;21130;51.728;8.748;2022-08-11T01:56:52;101093.19;;;15.01;68.32
34925;BME280;21130;51.728;8.748;2022-08-11T01:59:35;101095.84;;;14.90;68.26
34925;BME280;21130;51.728;8.748;2022-08-11T02:05:16;101090.13;;;14.80;70.26
34925;BME280;21130;51.728;8.748;2022-08-11T02:10:29;101095.84;;;14.68;69.68
34925;BME280;21130;51.728;8.748;2022-08-11T02:13:30;101092.72;;;14.65;70.25
34925;BME280;21130;51.728;8.748;2022-08-11T02:22:04;101090.25;;;14.52;71.99
34925;BME280;21130;51.728;8.748;2022-08-11T02:24:59;101099.84;;;14.56;69.67
34925;BME280;21130;51.728;8.748;2022-08-11T02:27:35;101099.66;;;14.62;68.11
34925;BME280;21130;51.728;8.748;2022-08-11T02:30:09;101104.41;;;14.84;66.30
34925;BME280;21130;51.728;8.748;2022-08-11T02:32:49;101097.22;;;14.88;65.15
34925;BME280;21130;51.728;8.748;2022-08-11T02:35:42;101094.56;;;14.98;64.95
34925;BME280;21130;51.728;8.748;2022-08-11T02:41:09;101097.16;;;15.05;64.34
34925;BME280;21130;51.728;8.748;2022-08-11T02:44:23;101092.59;;;14.99;65.01
34925;BME280;21130;51.728;8.748;2022-08-11T02:47:14;101093.13;;;14.96;64.68
34925;BME280;21130;51.728;8.748;2022-08-11T02:50:00;101096.50;;;14.98;66.08
34925;BME280;21130;51.728;8.748;2022-08-11T02:55:34;101098.84;;;14.84;70.59
34925;BME280;21130;51.728;8.748;2022-08-11T03:01:07;101089.25;;;14.58;72.95
34925;BME280;21130;51.728;8.748;2022-08-11T03:03:52;101092.47;;;14.50;73.07
34925;BME280;21130;51.728;8.748;2022-08-11T03:06:28;101095.34;;;14.38;73.93
34925;BME280;21130;51.728;8.748;2022-08-11T03:09:28;101091.66;;;14.32;73.89
34925;BME280;21130;51.728;8.748;2022-08-11T03:12:21;101088.09;;;14.20;74.33
34925;BME280;21130;51.728;8.748;2022-08-11T03:15:15;101096.88;;;14.12;75.01
34925;BME280;21130;51.728;8.748;2022-08-11T03:18:24;101089.53;;;14.05;75.21
34925;BME280;21130;51.728;8.748;2022-08-11T03:21:11;101096.38;;;13.98;75.75
34925;BME280;21130;51.728;8.748;2022-08-11T03:24:05;101106.63;;;13.92;76.51
34925;BME280;21130;51.728;8.748;2022-08-11T03:27:08;101099.00;;;13.88;77.08
34925;BME280;21130;51.728;8.748;2022-08-11T03:30:15;101093.94;;;13.85;77.17
34925;BME280;21130;51.728;8.748;2022-08-11T03:36:04;101094.84;;;13.73;78.19
34925;BME280;21130;51.728;8.748;2022-08-11T03:38:58;101097.31;;;13.70;79.08
34925;BME280;21130;51.728;8.748;2022-08-11T03:41:35;101103.22;;;13.73;79.11
34925;BME280;21130;51.728;8.748;2022-08-11T03:47:23;101097.03;;;13.71;79.98
34925;BME280;21130;51.728;8.748;2022-08-11T03:52:52;101102.56;;;13.83;78.02
34925;BME280;21130;51.728;8.748;2022-08-11T03:58:49;101109.56;;;13.86;79.38
34925;BME280;21130;51.728;8.748;2022-08-11T04:04:23;101107.63;;;13.86;78.24
34925;BME280;21130;51.728;8.748;2022-08-11T04:07:22;101105.00;;;13.96;73.52
34925;BME280;21130;51.728;8.748;2022-08-11T04:16:09;101095.38;;;14.21;74.28
34925;BME280;21130;51.728;8.748;2022-08-11T04:24:41;101093.41;;;14.21;69.02
34925;BME280;21130;51.728;8.748;2022-08-11T04:30:08;101091.81;;;14.42;67.55
34925;BME280;21130;51.728;8.748;2022-08-11T04:47:48;101092.72;;;14.31;74.15
34925;BME280;21130;51.728;8.748;2022-08-11T04:56:49;101106.09;;;14.29;73.95
34925;BME280;21130;51.728;8.748;2022-08-11T05:00:06;101103.06;;;14.31;74.20
34925;BME280;21130;51.728;8.748;2022-08-11T05:03:09;101107.81;;;14.30;74.51
34925;BME280;21130;51.728;8.748;2022-08-11T05:05:59;101106.25;;;14.39;75.13
34925;BME280;21130;51.728;8.748;2022-08-11T05:09:15;101106.31;;;14.44;75.54
34925;BME280;21130;51.728;8.748;2022-08-11T05:12:17;101109.59;;;14.53;75.81
34925;BME280;21130;51.728;8.748;2022-08-11T05:14:50;101102.72;;;14.61;76.07
34925;BME280;21130;51.728;8.748;2022-08-11T05:17:39;101108.44;;;14.71;76.33
34925;BME280;21130;51.728;8.748;2022-08-11T05:21:05;101102.91;;;14.76;75.55
34925;BME280;21130;51.728;8.748;2022-08-11T05:24:16;101111.19;;;14.88;74.59
34925;BME280;21130;51.728;8.748;2022-08-11T05:27:04;101106.63;;;15.04;75.71
34925;BME280;21130;51.728;8.748;2022-08-11T05:30:02;101115.22;;;15.19;75.99
34925;BME280;21130;51.728;8.748;2022-08-11T05:32:59;101115.72;;;15.38;74.27
34925;BME280;21130;51.728;8.748;2022-08-11T05:35:49;101114.31;;;15.63;72.15
34925;BME280;21130;51.728;8.748;2022-08-11T05:38:22;101103.41;;;15.88;69.20
34925;BME280;21130;51.728;8.748;2022-08-11T05:41:10;101109.81;;;16.16;69.17
34925;BME280;21130;51.728;8.748;2022-08-11T05:43:58;101112.53;;;16.43;68.51
34925;BME280;21130;51.728;8.748;2022-08-11T05:46:43;101109.31;;;16.67;68.89
34925;BME280;21130;51.728;8.748;2022-08-11T05:49:31;101110.94;;;17.00;65.08
34925;BME280;21130;51.728;8.748;2022-08-11T05:52:27;101099.84;;;17.25;62.16
34925;BME280;21130;51.728;8.748;2022-08-11T05:55:13;101116.47;;;17.58;62.03
34925;BME280;21130;51.728;8.748;2022-08-11T05:58:03;101110.38;;;17.86;59.51
34925;BME280;21130;51.728;8.748;2022-08-11T06:00:29;101103.38;;;18.14;57.99
34925;BME280;21130;51.728;8.748;2022-08-11T06:02:57;101107.56;;;18.38;56.93
34925;BME280;21130;51.728;8.748;2022-08-11T06:05:32;101108.38;;;18.69;54.99
34925;BME280;21130;51.728;8.748;2022-08-11T06:07:58;101111.97;;;18.95;53.61
34925;BME280;21130;51.728;8.748;2022-08-11T06:10:33;101113.50;;;19.37;51.46
34925;BME280;21130;51.728;8.748;2022-08-11T06:12:59;101108.00;;;19.61;49.88
34925;BME280;21130;51.728;8.748;2022-08-11T06:15:26;101111.50;;;19.92;48.51
34925;BME280;21130;51.728;8.748;2022-08-11T06:17:54;101106.56;;;20.08;48.18
34925;BME280;21130;51.728;8.748;2022-08-11T06:20:21;101103.78;;;20.37;46.73
34925;BME280;21130;51.728;8.748;2022-08-11T06:22:56;101101.09;;;20.56;46.31
34925;BME280;21130;51.728;8.748;2022-08-11T06:25:29;101101.72;;;20.77;46.77
34925;BME280;21130;51.728;8.748;2022-08-11T06:27:56;101101.78;;;20.96;45.36
34925;BME280;21130;51.728;8.748;2022-08-11T06:30:40;101100.63;;;21.21;44.59
34925;BME280;21130;51.728;8.748;2022-08-11T06:33:34;101104.81;;;21.48;44.80
34925;BME280;21130;51.728;8.748;2022-08-11T06:36:15;101107.06;;;21.70;42.88
34925;BME280;21130;51.728;8.748;2022-08-11T06:44:29;101103.97;;;22.23;41.57
34925;BME280;21130;51.728;8.748;2022-08-11T06:47:04;101099.22;;;22.51;41.09
34925;BME280;21130;51.728;8.748;2022-08-11T06:49:34;101097.72;;;22.73;39.89
34925;BME280;21130;51.728;8.748;2022-08-11T06:52:28;101090.69;;;22.84;39.27
34925;BME280;21130;51.728;8.748;2022-08-11T06:54:55;101092.09;;;23.00;39.37
34925;BME280;21130;51.728;8.748;2022-08-11T06:57:32;101097.00;;;23.22;38.21
34925;BME280;21130;51.728;8.748;2022-08-11T07:00:17;101086.28;;;23.33;38.60
34925;BME280;21130;51.728;8.748;2022-08-11T07:03:09;101090.97;;;23.51;38.26
34925;BME280;21130;51.728;8.748;2022-08-11T07:05:52;101087.66;;;23.72;37.81
34925;BME280;21130;51.728;8.748;2022-08-11T07:14:20;101099.06;;;24.17;37.01
34925;BME280;21130;51.728;8.748;2022-08-11T07:17:08;101097.25;;;24.44;37.22
34925;BME280;21130;51.728;8.748;2022-08-11T07:19:36;101093.38;;;24.62;36.89
34925;BME280;21130;51.728;8.748;2022-08-11T07:22:23;101099.34;;;24.83;36.38
34925;BME280;21130;51.728;8.748;2022-08-11T07:25:12;101097.56;;;24.96;35.94
34925;BME280;21130;51.728;8.748;2022-08-11T07:28:13;101093.09;;;25.12;35.67
34925;BME280;21130;51.728;8.748;2022-08-11T07:31:06;101093.84;;;25.35;34.75
34925;BME280;21130;51.728;8.748;2022-08-11T07:33:49;101092.19;;;25.34;34.72
34925;BME280;21130;51.728;8.748;2022-08-11T07:36:16;101096.72;;;25.44;36.00
34925;BME280;21130;51.728;8.748;2022-08-11T07:38:46;101097.75;;;25.57;35.02
34925;BME280;21130;51.728;8.748;2022-08-11T07:41:17;101100.13;;;25.81;34.41
34925;BME280;21130;51.728;8.748;2022-08-11T07:43:45;101093.44;;;25.94;34.73
34925;BME280;21130;51.728;8.748;2022-08-11T07:46:16;101081.59;;;26.01;34.19
34925;BME280;21130;51.728;8.748;2022-08-11T07:49:02;101087.41;;;26.22;33.60
34925;BME280;21130;51.728;8.748;2022-08-11T07:51:47;101086.00;;;26.45;33.38
34925;BME280;21130;51.728;8.748;2022-08-11T07:54:31;101090.53;;;26.46;32.86
34925;BME280;21130;51.728;8.748;2022-08-11T07:56:58;101087.50;;;26.60;32.15
34925;BME280;21130;51.728;8.748;2022-08-11T07:59:24;101092.31;;;26.77;32.23
34925;BME280;21130;51.728;8.748;2022-08-11T08:02:09;101087.19;;;27.00;32.06
34925;BME280;21130;51.728;8.748;2022-08-11T08:04:56;101094.53;;;27.10;31.04
34925;BME280;21130;51.728;8.748;2022-08-11T08:07:42;101087.63;;;27.11;30.84
34925;BME280;21130;51.728;8.748;2022-08-11T08:10:26;101091.91;;;27.34;31.44
34925;BME280;21130;51.728;8.748;2022-08-11T08:13:11;101086.91;;;27.31;30.39
34925;BME280;21130;51.728;8.748;2022-08-11T08:15:56;101086.59;;;27.54;31.12
34925;BME280;21130;51.728;8.748;2022-08-11T08:18:40;101080.88;;;27.54;29.76
34925;BME280;21130;51.728;8.748;2022-08-11T08:21:06;101089.44;;;27.75;30.42
34925;BME280;21130;51.728;8.748;2022-08-11T08:23:45;101090.25;;;27.84;30.16
34925;BME280;21130;51.728;8.748;2022-08-11T08:26:12;101089.38;;;27.84;29.69
34925;BME280;21130;51.728;8.748;2022-08-11T08:29:01;101091.63;;;27.99;30.10
34925;BME280;21130;51.728;8.748;2022-08-11T08:31:47;101089.03;;;28.06;30.27
34925;BME280;21130;51.728;8.748;2022-08-11T08:34:13;101091.88;;;28.27;29.73
34925;BME280;21130;51.728;8.748;2022-08-11T08:36:43;101084.34;;;28.22;29.35
34925;BME280;21130;51.728;8.748;2022-08-11T08:39:09;101075.28;;;28.20;29.08
34925;BME280;21130;51.728;8.748;2022-08-11T08:41:37;101091.25;;;28.21;28.81
34925;BME280;21130;51.728;8.748;2022-08-11T08:44:08;101086.72;;;28.54;29.58
34925;BME280;21130;51.728;8.748;2022-08-11T08:46:36;101080.00;;;28.71;28.83
34925;BME280;21130;51.728;8.748;2022-08-11T08:49:05;101081.72;;;29.08;29.29
34925;BME280;21130;51.728;8.748;2022-08-11T08:51:35;101080.06;;;29.32;28.63
34925;BME280;21130;51.728;8.748;2022-08-11T08:54:07;101081.44;;;29.50;27.45
34925;BME280;21130;51.728;8.748;2022-08-11T08:56:34;101083.56;;;29.78;26.44
34925;BME280;21130;51.728;8.748;2022-08-11T08:59:02;101080.41;;;29.43;27.01
34925;BME280;21130;51.728;8.748;2022-08-11T09:01:32;101078.44;;;29.71;25.92
34925;BME280;21130;51.728;8.748;2022-08-11T09:04:00;101083.59;;;30.06;26.01
34925;BME280;21130;51.728;8.748;2022-08-11T09:06:29;101075.41;;;29.92;26.42
34925;BME280;21130;51.728;8.748;2022-08-11T09:08:55;101075.66;;;30.28;25.20
34925;BME280;21130;51.728;8.748;2022-08-11T09:11:22;101070.44;;;30.46;24.95
34925;BME280;21130;51.728;8.748;2022-08-11T09:14:07;101075.19;;;31.02;24.12
34925;BME280;21130;51.728;8.748;2022-08-11T09:16:35;101076.00;;;31.34;24.06
34925;BME280;21130;51.728;8.748;2022-08-11T09:19:01;101077.25;;;31.52;24.44
34925;BME280;21130;51.728;8.748;2022-08-11T09:21:30;101076.00;;;32.04;23.26
34925;BME280;21130;51.728;8.748;2022-08-11T09:23:57;101069.78;;;32.22;23.09
34925;BME280;21130;51.728;8.748;2022-08-11T09:26:43;101077.47;;;32.57;22.21
34925;BME280;21130;51.728;8.748;2022-08-11T09:29:29;101064.69;;;32.54;22.13
34925;BME280;21130;51.728;8.748;2022-08-11T09:32:13;101052.06;;;32.82;22.03
34925;BME280;21130;51.728;8.748;2022-08-11T09:34:39;101064.56;;;32.93;21.67
34925;BME280;21130;51.728;8.748;2022-08-11T09:37:06;101060.94;;;33.19;21.58
34925;BME280;21130;51.728;8.748;2022-08-11T09:40:02;101058.72;;;33.09;21.98
34925;BME280;21130;51.728;8.748;2022-08-11T09:42:46;101061.94;;;33.57;21.59
34925;BME280;21130;51.728;8.748;2022-08-11T09:45:31;101056.41;;;34.05;20.02
34925;BME280;21130;51.728;8.748;2022-08-11T09:47:58;101056.16;;;34.14;20.56
34925;BME280;21130;51.728;8.748;2022-08-11T09:50:24;101055.53;;;34.01;20.35
34925;BME280;21130;51.728;8.748;2022-08-11T09:52:49;101046.72;;;33.87;20.68
34925;BME280;21130;51.728;8.748;2022-08-11T09:55:15;101044.66;;;33.30;20.95
34925;BME280;21130;51.728;8.748;2022-08-11T09:57:45;101053.91;;;33.17;20.80
34925;BME280;21130;51.728;8.748;2022-08-11T10:00:32;101041.25;;;32.75;21.28
34925;BME280;21130;51.728;8.748;2022-08-11T10:03:03;101035.72;;;32.86;21.60
34925;BME280;21130;51.728;8.748;2022-08-11T10:05:31;101032.19;;;32.96;21.55
34925;BME280;21130;51.728;8.748;2022-08-11T10:08:17;101036.78;;;33.01;21.92
34925;BME280;21130;51.728;8.748;2022-08-11T10:10:44;101036.25;;;33.45;21.44
34925;BME280;21130;51.728;8.748;2022-08-11T10:13:19;101029.00;;;33.85;20.97
34925;BME280;21130;51.728;8.748;2022-08-11T10:15:53;101036.34;;;33.52;20.52
34925;BME280;21130;51.728;8.748;2022-08-11T10:18:28;101037.44;;;33.70;20.85
34925;BME280;21130;51.728;8.748;2022-08-11T10:21:41;101034.03;;;33.61;20.33
34925;BME280;21130;51.728;8.748;2022-08-11T10:24:30;101029.88;;;33.89;20.08
34925;BME280;21130;51.728;8.748;2022-08-11T10:27:14;101026.25;;;34.29;20.16
34925;BME280;21130;51.728;8.748;2022-08-11T10:29:40;101026.47;;;34.13;20.04
34925;BME280;21130;51.728;8.748;2022-08-11T10:32:27;101030.25;;;34.17;20.53
34925;BME280;21130;51.728;8.748;2022-08-11T10:35:14;101024.81;;;33.22;21.44
34925;BME280;21130;51.728;8.748;2022-08-11T10:37:41;101016.09;;;33.45;20.74
34925;BME280;21130;51.728;8.748;2022-08-11T10:40:09;101023.91;;;33.44;21.93
34925;BME280;21130;51.728;8.748;2022-08-11T10:42:37;101013.38;;;33.55;21.28
34925;BME280;21130;51.728;8.748;2022-08-11T10:45:22;101014.75;;;33.08;21.50
34925;BME280;21130;51.728;8.748;2022-08-11T10:48:06;101009.16;;;33.19;20.02
34925;BME280;21130;51.728;8.748;2022-08-11T10:50:32;101003.84;;;32.48;21.09
34925;BME280;21130;51.728;8.748;2022-08-11T10:53:17;101003.66;;;32.61;21.18
34925;BME280;21130;51.728;8.748;2022-08-11T10:56:03;101003.56;;;32.80;21.27
34925;BME280;21130;51.728;8.748;2022-08-11T10:58:48;101010.44;;;33.52;20.62
34925;BME280;21130;51.728;8.748;2022-08-11T11:01:21;100996.81;;;32.69;21.18
34925;BME280;21130;51.728;8.748;2022-08-11T11:03:49;101001.13;;;33.05;21.25
34925;BME280;21130;51.728;8.748;2022-08-11T11:06:24;100986.66;;;33.55;20.57
34925;BME280;21130;51.728;8.748;2022-08-11T11:09:06;100993.31;;;33.32;21.18
34925;BME280;21130;51.728;8.748;2022-08-11T11:11:36;100988.13;;;32.88;20.86
34925;BME280;21130;51.728;8.748;2022-08-11T11:14:24;100982.81;;;33.17;20.88
34925;BME280;21130;51.728;8.748;2022-08-11T11:17:11;100984.06;;;32.93;21.61
34925;BME280;21130;51.728;8.748;2022-08-11T11:19:37;100972.69;;;33.27;21.94
34925;BME280;21130;51.728;8.748;2022-08-11T11:22:04;100974.06;;;33.67;21.17
34925;BME280;21130;51.728;8.748;2022-08-11T11:25:20;100978.06;;;33.89;20.67
34925;BME280;21130;51.728;8.748;2022-08-11T11:27:54;100978.91;;;33.93;20.18
34925;BME280;21130;51.728;8.748;2022-08-11T11:30:24;100973.25;;;34.37;20.30
34925;BME280;21130;51.728;8.748;2022-08-11T11:33:03;100973.34;;;34.07;20.25
34925;BME280;21130;51.728;8.748;2022-08-11T11:38:05;100956.22;;;33.54;20.12
34925;BME280;21130;51.728;8.748;2022-08-11T11:40:34;100966.25;;;34.01;20.09
34925;BME280;21130;51.728;8.748;2022-08-11T11:43:02;100961.84;;;33.73;21.94
34925;BME280;21130;51.728;8.748;2022-08-11T11:45:28;100952.41;;;33.46;20.26
34925;BME280;21130;51.728;8.748;2022-08-11T11:47:54;100948.06;;;34.31;20.36
34925;BME280;21130;51.728;8.748;2022-08-11T11:50:28;100945.06;;;34.61;19.69
34925;BME280;21130;51.728;8.748;2022-08-11T11:52:55;100946.16;;;34.97;19.10
34925;BME280;21130;51.728;8.748;2022-08-11T11:55:23;100945.50;;;34.63;19.13
34925;BME280;21130;51.728;8.748;2022-08-11T11:57:51;100934.94;;;33.59;19.38
34925;BME280;21130;51.728;8.748;2022-08-11T12:00:36;100940.03;;;34.10;20.07
34925;BME280;21130;51.728;8.748;2022-08-11T12:03:22;100935.34;;;33.98;20.30
34925;BME280;21130;51.728;8.748;2022-08-11T12:05:49;100933.47;;;34.57;18.95
34925;BME280;21130;51.728;8.748;2022-08-11T12:08:16;100936.28;;;34.47;19.09
34925;BME280;21130;51.728;8.748;2022-08-11T12:10:49;100919.06;;;34.57;18.28
34925;BME280;21130;51.728;8.748;2022-08-11T12:13:37;100919.75;;;34.43;19.14
34925;BME280;21130;51.728;8.748;2022-08-11T12:16:11;100923.06;;;34.42;17.86
34925;BME280;21130;51.728;8.748;2022-08-11T12:18:39;100922.47;;;34.67;18.09
34925;BME280;21130;51.728;8.748;2022-08-11T12:21:06;100911.34;;;34.69;18.30
34925;BME280;21130;51.728;8.748;2022-08-11T12:23:34;100912.69;;;34.85;19.11
34925;BME280;21130;51.728;8.748;2022-08-11T12:26:19;100908.78;;;35.12;20.00
34925;BME280;21130;51.728;8.748;2022-08-11T12:29:05;100902.41;;;34.84;18.86
34925;BME280;21130;51.728;8.748;2022-08-11T12:31:32;100907.53;;;34.57;18.55
34925;BME280;21130;51.728;8.748;2022-08-11T12:34:10;100904.47;;;34.88;17.55
34925;BME280;21130;51.728;8.748;2022-08-11T12:36:38;100901.59;;;34.84;17.67
34925;BME280;21130;51.728;8.748;2022-08-11T12:39:09;100899.63;;;35.02;17.62
34925;BME280;21130;51.728;8.748;2022-08-11T12:41:36;100893.63;;;35.29;18.55
34925;BME280;21130;51.728;8.748;2022-08-11T12:44:25;100891.66;;;35.58;18.59
34925;BME280;21130;51.728;8.748;2022-08-11T12:47:10;100883.94;;;35.98;17.68
34925;BME280;21130;51.728;8.748;2022-08-11T12:49:43;100883.09;;;35.83;17.78
34925;BME280;21130;51.728;8.748;2022-08-11T12:52:32;100878.16;;;35.98;17.99
34925;BME280;21130;51.728;8.748;2022-08-11T12:55:10;100881.47;;;36.04;17.10
34925;BME280;21130;51.728;8.748;2022-08-11T12:57:38;100872.38;;;35.87;17.87
34925;BME280;21130;51.728;8.748;2022-08-11T13:00:25;100874.94;;;36.57;17.59
34925;BME280;21130;51.728;8.748;2022-08-11T13:03:12;100865.78;;;35.94;17.39
34925;BME280;21130;51.728;8.748;2022-08-11T13:05:59;100871.59;;;36.16;16.94
34925;BME280;21130;51.728;8.748;2022-08-11T13:08:27;100865.84;;;36.12;17.44
34925;BME280;21130;51.728;8.748;2022-08-11T13:10:56;100859.91;;;35.58;17.39
34925;BME280;21130;51.728;8.748;2022-08-11T13:13:41;100855.88;;;35.99;17.00
34925;BME280;21130;51.728;8.748;2022-08-11T13:16:09;100850.47;;;34.77;17.75
34925;BME280;21130;51.728;8.748;2022-08-11T13:18:39;100857.28;;;35.21;18.28
34925;BME280;21130;51.728;8.748;2022-08-11T13:21:08;100845.97;;;35.82;17.96
34925;BME280;21130;51.728;8.748;2022-08-11T13:23:35;100848.41;;;35.73;18.24
34925;BME280;21130;51.728;8.748;2022-08-11T13:26:04;100840.22;;;36.61;17.81
34925;BME280;21130;51.728;8.748;2022-08-11T13:28:32;100841.00;;;36.83;18.42
34925;BME280;21130;51.728;8.748;2022-08-11T13:31:01;100854.66;;;36.82;17.13
34925;BME280;21130;51.728;8.748;2022-08-11T13:33:41;100841.06;;;36.15;18.49
34925;BME280;21130;51.728;8.748;2022-08-11T13:36:07;100840.25;;;36.32;18.33
34925;BME280;21130;51.728;8.748;2022-08-11T13:38:33;100836.47;;;35.67;18.52
34925;BME280;21130;51.728;8.748;2022-08-11T13:40:59;100832.47;;;35.02;18.82
34925;BME280;21130;51.728;8.748;2022-08-11T13:43:25;100831.09;;;35.62;18.57
34925;BME280;21130;51.728;8.748;2022-08-11T13:45:51;100824.06;;;35.66;18.53
34925;BME280;21130;51.728;8.748;2022-08-11T13:48:38;100820.44;;;34.85;18.61
34925;BME280;21130;51.728;8.748;2022-08-11T13:51:06;100811.81;;;34.93;17.68
34925;BME280;21130;51.728;8.748;2022-08-11T13:53:51;100819.84;;;35.39;17.50
34925;BME280;21130;51.728;8.748;2022-08-11T13:56:17;100822.03;;;35.74;17.45
34925;BME280;21130;51.728;8.748;2022-08-11T13:58:43;100814.50;;;35.37;17.17
34925;BME280;21130;51.728;8.748;2022-08-11T14:01:09;100814.50;;;35.37;17.98
34925;BME280;21130;51.728;8.748;2022-08-11T14:03:38;100800.91;;;35.45;17.50
34925;BME280;21130;51.728;8.748;2022-08-11T14:06:06;100801.72;;;35.45;17.96
34925;BME280;21130;51.728;8.748;2022-08-11T14:08:37;100802.91;;;35.34;17.42
34925;BME280;21130;51.728;8.748;2022-08-11T14:11:03;100800.13;;;35.66;19.53
34925;BME280;21130;51.728;8.748;2022-08-11T14:13:50;100797.72;;;36.11;18.12
34925;BME280;21130;51.728;8.748;2022-08-11T14:16:23;100804.72;;;36.42;17.44
34925;BME280;21130;51.728;8.748;2022-08-11T14:18:53;100790.22;;;36.71;17.39
34925;BME280;21130;51.728;8.748;2022-08-11T14:21:23;100793.81;;;37.07;18.12
34925;BME280;21130;51.728;8.748;2022-08-11T14:24:08;100788.47;;;36.95;18.78
34925;BME280;21130;51.728;8.748;2022-08-11T14:26:37;100789.78;;;36.80;17.56
34925;BME280;21130;51.728;8.748;2022-08-11T14:29:16;100789.81;;;36.54;17.93
34925;BME280;21130;51.728;8.748;2022-08-11T14:32:05;100793.56;;;36.05;18.50
34925;BME280;21130;51.728;8.748;2022-08-11T14:34:32;100784.91;;;36.05;18.86
34925;BME280;21130;51.728;8.748;2022-08-11T14:37:10;100791.09;;;36.00;18.53
34925;BME280;21130;51.728;8.748;2022-08-11T14:39:53;100781.16;;;36.44;17.93
34925;BME280;21130;51.728;8.748;2022-08-11T14:42:21;100781.41;;;37.03;16.82
34925;BME280;21130;51.728;8.748;2022-08-11T14:45:11;100773.22;;;36.87;17.70
34925;BME280;21130;51.728;8.748;2022-08-11T14:48:00;100772.50;;;37.46;17.05
34925;BME280;21130;51.728;8.748;2022-08-11T14:50:29;100771.03;;;37.16;16.93
34925;BME280;21130;51.728;8.748;2022-08-11T14:52:58;100771.38;;;37.33;16.91
34925;BME280;21130;51.728;8.748;2022-08-11T14:55:25;100771.56;;;36.79;17.07
34925;BME280;21130;51.728;8.748;2022-08-11T14:58:13;100763.75;;;36.76;18.13
34925;BME280;21130;51.728;8.748;2022-08-11T15:00:40;100762.47;;;36.84;17.33
34925;BME280;21130;51.728;8.748;2022-08-11T15:03:06;100767.97;;;35.85;16.75
34925;BME280;21130;51.728;8.748;2022-08-11T15:05:35;100768.41;;;35.80;18.01
34925;BME280;21130;51.728;8.748;2022-08-11T15:08:04;100760.97;;;36.11;18.10
34925;BME280;21130;51.728;8.748;2022-08-11T15:10:30;100765.84;;;36.54;18.08
34925;BME280;21130;51.728;8.748;2022-08-11T15:12:55;100762.22;;;36.14;18.25
34925;BME280;21130;51.728;8.748;2022-08-11T15:15:21;100754.34;;;35.86;18.87
34925;BME280;21130;51.728;8.748;2022-08-11T15:18:10;100757.66;;;35.81;17.94
34925;BME280;21130;51.728;8.748;2022-08-11T15:20:36;100760.97;;;35.86;17.48
34925;BME280;21130;51.728;8.748;2022-08-11T15:23:20;100753.47;;;35.46;18.55
34925;BME280;21130;51.728;8.748;2022-08-11T15:28:36;100750.66;;;36.10;18.11
34925;BME280;21130;51.728;8.748;2022-08-11T15:31:24;100743.59;;;36.37;16.58
34925;BME280;21130;51.728;8.748;2022-08-11T15:33:57;100743.56;;;36.54;16.83
34925;BME280;21130;51.728;8.748;2022-08-11T15:36:47;100740.31;;;36.17;18.09
34925;BME280;21130;51.728;8.748;2022-08-11T15:39:50;100735.34;;;35.45;18.62
34925;BME280;21130;51.728;8.748;2022-08-11T15:43:06;100729.56;;;35.35;19.25
34925;BME280;21130;51.728;8.748;2022-08-11T15:45:52;100726.63;;;35.13;19.01
34925;BME280;21130;51.728;8.748;2022-08-11T15:51:05;100731.16;;;35.18;17.78
34925;BME280;21130;51.728;8.748;2022-08-11T15:53:40;100727.47;;;35.39;18.33
34925;BME280;21130;51.728;8.748;2022-08-11T15:56:08;100722.13;;;35.26;18.73
34925;BME280;21130;51.728;8.748;2022-08-11T15:58:38;100721.69;;;35.28;19.71